sensor_id;sensor_type;location;lat;lon;timestamp;temperature;humidity
68842;SHT35;55849;48.482;2.332;2023-09-19T04:44:38;17.82;68.03
68842;SHT35;55849;48.482;2.332;2023-09-19T04:47:40;17.79;67.90
68842;SHT35;55849;48.482;2.332;2023-09-19T04:50:43;17.77;68.32
68842;SHT35;55849;48.482;2.332;2023-09-19T04:53:45;17.76;67.87
68842;SHT35;55849;48.482;2.332;2023-09-19T04:56:48;17.72;68.08
68842;SHT35;55849;48.482;2.332;2023-09-19T04:59:51;17.66;67.82
68842;SHT35;55849;48.482;2.332;2023-09-19T05:02:55;17.65;67.83
68842;SHT35;55849;48.482;2.332;2023-09-19T05:05:56;17.63;68.58
68842;SHT35;55849;48.482;2.332;2023-09-19T05:08:58;17.65;68.22
68842;SHT35;55849;48.482;2.332;2023-09-19T05:12:00;17.59;68.23
68842;SHT35;55849;48.482;2.332;2023-09-19T05:15:04;17.59;67.91
68842;SHT35;55849;48.482;2.332;2023-09-19T05:18:07;17.59;68.09
68842;SHT35;55849;48.482;2.332;2023-09-19T05:21:08;17.56;68.01
68842;SHT35;55849;48.482;2.332;2023-09-19T05:24:10;17.56;68.11
68842;SHT35;55849;48.482;2.332;2023-09-19T05:27:12;17.53;68.15
68842;SHT35;55849;48.482;2.332;2023-09-19T05:30:15;17.52;68.59
68842;SHT35;55849;48.482;2.332;2023-09-19T05:33:18;17.49;68.35
68842;SHT35;55849;48.482;2.332;2023-09-19T05:36:20;17.50;68.22
68842;SHT35;55849;48.482;2.332;2023-09-19T05:39:21;17.50;68.08
68842;SHT35;55849;48.482;2.332;2023-09-19T05:42:23;17.48;68.17
68842;SHT35;55849;48.482;2.332;2023-09-19T05:45:26;17.49;68.26
68842;SHT35;55849;48.482;2.332;2023-09-19T05:48:27;17.46;68.29
68842;SHT35;55849;48.482;2.332;2023-09-19T05:51:29;17.49;68.42
68842;SHT35;55849;48.482;2.332;2023-09-19T05:54:31;17.46;68.82
68842;SHT35;55849;48.482;2.332;2023-09-19T05:57:33;17.43;68.79
68842;SHT35;55849;48.482;2.332;2023-09-19T06:00:36;17.46;68.68
68842;SHT35;55849;48.482;2.332;2023-09-19T06:03:39;17.48;68.93
68842;SHT35;55849;48.482;2.332;2023-09-19T06:06:40;17.46;69.42
68842;SHT35;55849;48.482;2.332;2023-09-19T06:09:42;17.49;69.40
68842;SHT35;55849;48.482;2.332;2023-09-19T06:12:44;17.52;69.27
68842;SHT35;55849;48.482;2.332;2023-09-19T06:15:47;17.52;69.70
68842;SHT35;55849;48.482;2.332;2023-09-19T06:18:49;17.53;69.97
68842;SHT35;55849;48.482;2.332;2023-09-19T06:21:53;17.57;69.90
68842;SHT35;55849;48.482;2.332;2023-09-19T06:24:55;17.55;69.85
68842;SHT35;55849;48.482;2.332;2023-09-19T06:27:56;17.59;70.37
68842;SHT35;55849;48.482;2.332;2023-09-19T06:31:02;17.61;70.48
68842;SHT35;55849;48.482;2.332;2023-09-19T06:34:03;17.63;70.50
68842;SHT35;55849;48.482;2.332;2023-09-19T06:37:05;17.66;70.56
68842;SHT35;55849;48.482;2.332;2023-09-19T06:40:08;17.67;70.68
68842;SHT35;55849;48.482;2.332;2023-09-19T06:43:13;17.67;70.63
68842;SHT35;55849;48.482;2.332;2023-09-19T06:46:16;17.72;71.15
68842;SHT35;55849;48.482;2.332;2023-09-19T06:49:18;17.73;71.28
68842;SHT35;55849;48.482;2.332;2023-09-19T06:52:19;17.74;71.31
68842;SHT35;55849;48.482;2.332;2023-09-19T06:55:22;17.77;71.39
68842;SHT35;55849;48.482;2.332;2023-09-19T06:58:25;17.77;71.71
68842;SHT35;55849;48.482;2.332;2023-09-19T07:01:28;17.83;71.83
68842;SHT35;55849;48.482;2.332;2023-09-19T07:04:30;17.84;71.97
68842;SHT35;55849;48.482;2.332;2023-09-19T07:07:31;17.89;71.86
68842;SHT35;55849;48.482;2.332;2023-09-19T07:10:35;17.91;71.98
68842;SHT35;55849;48.482;2.332;2023-09-19T07:13:36;17.96;71.97
68842;SHT35;55849;48.482;2.332;2023-09-19T07:16:40;17.96;72.15
68842;SHT35;55849;48.482;2.332;2023-09-19T07:19:44;18.01;72.11
68842;SHT35;55849;48.482;2.332;2023-09-19T07:22:49;18.02;72.30
68842;SHT35;55849;48.482;2.332;2023-09-19T07:25:51;18.04;72.38
68842;SHT35;55849;48.482;2.332;2023-09-19T07:28:53;18.05;72.61
68842;SHT35;55849;48.482;2.332;2023-09-19T07:31:56;18.04;72.72
68842;SHT35;55849;48.482;2.332;2023-09-19T07:34:57;18.07;72.69
68842;SHT35;55849;48.482;2.332;2023-09-19T07:37:59;18.11;72.84
68842;SHT35;55849;48.482;2.332;2023-09-19T07:41:02;18.14;72.96
68842;SHT35;55849;48.482;2.332;2023-09-19T07:44:04;18.18;72.70
68842;SHT35;55849;48.482;2.332;2023-09-19T07:47:07;18.21;72.99
68842;SHT35;55849;48.482;2.332;2023-09-19T07:50:09;18.22;72.65
68842;SHT35;55849;48.482;2.332;2023-09-19T07:53:11;18.25;71.84
68842;SHT35;55849;48.482;2.332;2023-09-19T07:56:14;18.26;71.95
68842;SHT35;55849;48.482;2.332;2023-09-19T07:59:16;18.28;72.21
68842;SHT35;55849;48.482;2.332;2023-09-19T08:02:19;18.33;71.69
68842;SHT35;55849;48.482;2.332;2023-09-19T08:05:21;18.33;71.52
68842;SHT35;55849;48.482;2.332;2023-09-19T08:08:23;18.38;71.01
68842;SHT35;55849;48.482;2.332;2023-09-19T08:11:26;18.39;71.07
68842;SHT35;55849;48.482;2.332;2023-09-19T08:14:32;18.41;71.06
68842;SHT35;55849;48.482;2.332;2023-09-19T08:17:35;18.43;70.26
68842;SHT35;55849;48.482;2.332;2023-09-19T08:20:37;18.46;71.40
68842;SHT35;55849;48.482;2.332;2023-09-19T08:23:38;18.50;71.25
68842;SHT35;55849;48.482;2.332;2023-09-19T08:26:40;18.55;71.12
68842;SHT35;55849;48.482;2.332;2023-09-19T08:29:41;18.55;71.15
68842;SHT35;55849;48.482;2.332;2023-09-19T08:32:45;18.60;70.64
68842;SHT35;55849;48.482;2.332;2023-09-19T08:35:48;18.64;71.17
68842;SHT35;55849;48.482;2.332;2023-09-19T08:38:49;18.71;70.19
68842;SHT35;55849;48.482;2.332;2023-09-19T08:41:57;18.74;70.13
68842;SHT35;55849;48.482;2.332;2023-09-19T08:44:59;18.77;69.16
68842;SHT35;55849;48.482;2.332;2023-09-19T08:48:12;18.85;69.23
68842;SHT35;55849;48.482;2.332;2023-09-19T08:51:21;18.90;69.74
68842;SHT35;55849;48.482;2.332;2023-09-19T08:54:29;18.91;68.83
68842;SHT35;55849;48.482;2.332;2023-09-19T08:57:33;18.97;69.20
68842;SHT35;55849;48.482;2.332;2023-09-19T09:00:40;19.00;68.42
68842;SHT35;55849;48.482;2.332;2023-09-19T09:03:46;19.04;68.34
68842;SHT35;55849;48.482;2.332;2023-09-19T09:06:50;19.01;68.18
68842;SHT35;55849;48.482;2.332;2023-09-19T09:09:53;19.01;67.14
68842;SHT35;55849;48.482;2.332;2023-09-19T09:12:55;19.05;67.57
68842;SHT35;55849;48.482;2.332;2023-09-19T09:15:59;19.04;67.83
68842;SHT35;55849;48.482;2.332;2023-09-19T09:19:02;19.05;67.17
68842;SHT35;55849;48.482;2.332;2023-09-19T09:22:08;19.04;66.97
68842;SHT35;55849;48.482;2.332;2023-09-19T09:25:10;19.05;67.54
68842;SHT35;55849;48.482;2.332;2023-09-19T09:28:11;19.10;67.77
68842;SHT35;55849;48.482;2.332;2023-09-19T09:31:23;19.11;67.32
68842;SHT35;55849;48.482;2.332;2023-09-19T09:34:33;19.14;66.35
68842;SHT35;55849;48.482;2.332;2023-09-19T09:37:35;19.16;66.08
68842;SHT35;55849;48.482;2.332;2023-09-19T09:40:49;19.21;65.17
68842;SHT35;55849;48.482;2.332;2023-09-19T09:43:54;19.22;65.74
68842;SHT35;55849;48.482;2.332;2023-09-19T09:46:56;19.26;65.60
68842;SHT35;55849;48.482;2.332;2023-09-19T09:50:31;19.26;64.98
68842;SHT35;55849;48.482;2.332;2023-09-19T09:53:44;19.29;65.28
68842;SHT35;55849;48.482;2.332;2023-09-19T09:56:57;19.35;65.31
68842;SHT35;55849;48.482;2.332;2023-09-19T10:00:01;19.37;64.97
68842;SHT35;55849;48.482;2.332;2023-09-19T10:03:19;19.43;65.20
68842;SHT35;55849;48.482;2.332;2023-09-19T10:06:24;19.46;65.34
68842;SHT35;55849;48.482;2.332;2023-09-19T10:09:30;19.50;66.22
68842;SHT35;55849;48.482;2.332;2023-09-19T10:12:48;19.56;66.03
68842;SHT35;55849;48.482;2.332;2023-09-19T10:15:51;19.64;65.88
68842;SHT35;55849;48.482;2.332;2023-09-19T10:18:56;19.70;66.14
68842;SHT35;55849;48.482;2.332;2023-09-19T10:22:01;19.78;65.76
68842;SHT35;55849;48.482;2.332;2023-09-19T10:25:05;19.82;65.42
68842;SHT35;55849;48.482;2.332;2023-09-19T10:28:10;19.89;65.99
68842;SHT35;55849;48.482;2.332;2023-09-19T10:31:12;19.98;65.93
68842;SHT35;55849;48.482;2.332;2023-09-19T10:34:15;20.06;65.46
68842;SHT35;55849;48.482;2.332;2023-09-19T10:37:20;20.16;65.30
68842;SHT35;55849;48.482;2.332;2023-09-19T10:40:27;20.25;66.45
68842;SHT35;55849;48.482;2.332;2023-09-19T10:43:32;20.34;65.36
68842;SHT35;55849;48.482;2.332;2023-09-19T10:46:34;20.37;65.28
68842;SHT35;55849;48.482;2.332;2023-09-19T10:49:35;20.49;64.48
68842;SHT35;55849;48.482;2.332;2023-09-19T10:52:45;20.57;65.49
68842;SHT35;55849;48.482;2.332;2023-09-19T10:55:53;20.70;64.66
68842;SHT35;55849;48.482;2.332;2023-09-19T10:59:07;20.81;63.02
68842;SHT35;55849;48.482;2.332;2023-09-19T11:02:19;20.90;63.72
68842;SHT35;55849;48.482;2.332;2023-09-19T11:05:21;20.98;61.83
68842;SHT35;55849;48.482;2.332;2023-09-19T11:08:25;21.03;61.64
68842;SHT35;55849;48.482;2.332;2023-09-19T11:11:40;21.05;61.71
68842;SHT35;55849;48.482;2.332;2023-09-19T11:14:42;21.10;61.23
68842;SHT35;55849;48.482;2.332;2023-09-19T11:17:45;21.12;59.97
68842;SHT35;55849;48.482;2.332;2023-09-19T11:20:47;21.13;60.11
68842;SHT35;55849;48.482;2.332;2023-09-19T11:24:32;21.16;59.58
68842;SHT35;55849;48.482;2.332;2023-09-19T11:31:42;21.18;59.79
68842;SHT35;55849;48.482;2.332;2023-09-19T11:34:48;21.22;60.29
68842;SHT35;55849;48.482;2.332;2023-09-19T11:38:00;21.22;60.26
68842;SHT35;55849;48.482;2.332;2023-09-19T11:41:40;21.25;60.92
68842;SHT35;55849;48.482;2.332;2023-09-19T11:44:41;21.29;61.13
68842;SHT35;55849;48.482;2.332;2023-09-19T11:47:45;21.33;61.58
68842;SHT35;55849;48.482;2.332;2023-09-19T11:50:47;21.43;62.01
68842;SHT35;55849;48.482;2.332;2023-09-19T11:53:52;21.51;61.32
68842;SHT35;55849;48.482;2.332;2023-09-19T11:56:55;21.61;61.01
68842;SHT35;55849;48.482;2.332;2023-09-19T11:59:57;21.73;61.21
68842;SHT35;55849;48.482;2.332;2023-09-19T12:03:04;21.84;60.00
68842;SHT35;55849;48.482;2.332;2023-09-19T12:06:12;21.89;60.29
68842;SHT35;55849;48.482;2.332;2023-09-19T12:09:14;21.93;60.50
68842;SHT35;55849;48.482;2.332;2023-09-19T12:12:23;22.01;60.66
68842;SHT35;55849;48.482;2.332;2023-09-19T12:15:27;22.06;60.73
68842;SHT35;55849;48.482;2.332;2023-09-19T12:18:34;22.10;60.56
68842;SHT35;55849;48.482;2.332;2023-09-19T12:21:36;22.16;60.32
68842;SHT35;55849;48.482;2.332;2023-09-19T12:24:37;22.23;60.09
68842;SHT35;55849;48.482;2.332;2023-09-19T12:27:44;22.33;59.54
68842;SHT35;55849;48.482;2.332;2023-09-19T12:30:47;22.45;59.12
68842;SHT35;55849;48.482;2.332;2023-09-19T12:33:53;22.55;58.78
68842;SHT35;55849;48.482;2.332;2023-09-19T12:37:08;22.64;58.39
68842;SHT35;55849;48.482;2.332;2023-09-19T12:40:13;22.65;57.83
68842;SHT35;55849;48.482;2.332;2023-09-19T12:43:20;22.71;58.04
68842;SHT35;55849;48.482;2.332;2023-09-19T12:46:22;22.72;58.52
68842;SHT35;55849;48.482;2.332;2023-09-19T12:49:25;22.76;58.11
68842;SHT35;55849;48.482;2.332;2023-09-19T12:52:34;22.84;58.16
68842;SHT35;55849;48.482;2.332;2023-09-19T12:55:36;22.96;58.69
68842;SHT35;55849;48.482;2.332;2023-09-19T12:58:53;23.13;58.25
68842;SHT35;55849;48.482;2.332;2023-09-19T13:02:04;23.28;56.92
68842;SHT35;55849;48.482;2.332;2023-09-19T13:05:07;23.36;56.64
68842;SHT35;55849;48.482;2.332;2023-09-19T13:08:17;23.41;56.64
68842;SHT35;55849;48.482;2.332;2023-09-19T13:11:20;23.41;56.45
68842;SHT35;55849;48.482;2.332;2023-09-19T13:14:25;23.46;57.00
68842;SHT35;55849;48.482;2.332;2023-09-19T13:17:42;23.54;57.34
68842;SHT35;55849;48.482;2.332;2023-09-19T13:21:07;23.64;55.69
68842;SHT35;55849;48.482;2.332;2023-09-19T13:24:21;23.83;55.85
68842;SHT35;55849;48.482;2.332;2023-09-19T13:27:23;24.12;55.79
68842;SHT35;55849;48.482;2.332;2023-09-19T13:30:27;24.37;54.20
68842;SHT35;55849;48.482;2.332;2023-09-19T13:33:29;24.45;54.08
68842;SHT35;55849;48.482;2.332;2023-09-19T13:36:31;24.51;54.42
68842;SHT35;55849;48.482;2.332;2023-09-19T13:39:32;24.57;54.06
68842;SHT35;55849;48.482;2.332;2023-09-19T13:42:34;24.61;53.98
68842;SHT35;55849;48.482;2.332;2023-09-19T13:45:38;24.66;53.84
68842;SHT35;55849;48.482;2.332;2023-09-19T13:48:42;24.69;53.51
68842;SHT35;55849;48.482;2.332;2023-09-19T13:51:43;24.71;53.67
68842;SHT35;55849;48.482;2.332;2023-09-19T13:54:45;24.69;53.68
68842;SHT35;55849;48.482;2.332;2023-09-19T13:57:47;24.71;52.73
68842;SHT35;55849;48.482;2.332;2023-09-19T14:00:51;24.73;53.50
68842;SHT35;55849;48.482;2.332;2023-09-19T14:03:55;24.71;52.87
68842;SHT35;55849;48.482;2.332;2023-09-19T14:06:57;24.73;53.57
68842;SHT35;55849;48.482;2.332;2023-09-19T14:10:00;24.77;53.11
68842;SHT35;55849;48.482;2.332;2023-09-19T14:13:03;24.83;52.65
68842;SHT35;55849;48.482;2.332;2023-09-19T14:16:07;24.79;52.46
68842;SHT35;55849;48.482;2.332;2023-09-19T14:19:09;24.76;52.42
68842;SHT35;55849;48.482;2.332;2023-09-19T14:22:11;24.79;53.83
68842;SHT35;55849;48.482;2.332;2023-09-19T14:25:14;24.87;52.08
68842;SHT35;55849;48.482;2.332;2023-09-19T14:28:16;24.94;51.83
68842;SHT35;55849;48.482;2.332;2023-09-19T14:31:20;24.94;51.55
68842;SHT35;55849;48.482;2.332;2023-09-19T14:34:21;24.90;51.47
68842;SHT35;55849;48.482;2.332;2023-09-19T14:37:23;24.86;51.44
68842;SHT35;55849;48.482;2.332;2023-09-19T14:40:24;24.80;51.72
68842;SHT35;55849;48.482;2.332;2023-09-19T14:43:27;24.77;52.33
68842;SHT35;55849;48.482;2.332;2023-09-19T14:46:31;24.75;51.49
68842;SHT35;55849;48.482;2.332;2023-09-19T14:49:33;24.72;51.85
68842;SHT35;55849;48.482;2.332;2023-09-19T14:52:35;24.72;51.76
68842;SHT35;55849;48.482;2.332;2023-09-19T14:55:37;24.73;52.40
68842;SHT35;55849;48.482;2.332;2023-09-19T14:58:41;24.82;52.23
68842;SHT35;55849;48.482;2.332;2023-09-19T15:01:44;24.94;52.40
68842;SHT35;55849;48.482;2.332;2023-09-19T15:04:46;25.09;51.06
68842;SHT35;55849;48.482;2.332;2023-09-19T15:07:47;25.10;51.19
68842;SHT35;55849;48.482;2.332;2023-09-19T15:10:49;25.11;51.07
68842;SHT35;55849;48.482;2.332;2023-09-19T15:13:53;25.10;51.78
68842;SHT35;55849;48.482;2.332;2023-09-19T15:16:56;25.13;51.81
68842;SHT35;55849;48.482;2.332;2023-09-19T15:19:57;25.16;50.95
68842;SHT35;55849;48.482;2.332;2023-09-19T15:22:59;25.17;51.27
68842;SHT35;55849;48.482;2.332;2023-09-19T15:26:02;25.13;50.65
68842;SHT35;55849;48.482;2.332;2023-09-19T15:29:03;25.13;51.18
68842;SHT35;55849;48.482;2.332;2023-09-19T15:32:06;25.10;50.53
68842;SHT35;55849;48.482;2.332;2023-09-19T15:35:10;25.10;51.25
68842;SHT35;55849;48.482;2.332;2023-09-19T15:38:14;25.11;51.11
68842;SHT35;55849;48.482;2.332;2023-09-19T15:41:15;25.17;50.90
68842;SHT35;55849;48.482;2.332;2023-09-19T15:44:18;25.20;50.87
68842;SHT35;55849;48.482;2.332;2023-09-19T15:47:21;25.27;50.75
68842;SHT35;55849;48.482;2.332;2023-09-19T15:50:23;25.28;50.83
68842;SHT35;55849;48.482;2.332;2023-09-19T15:53:25;25.30;50.59
68842;SHT35;55849;48.482;2.332;2023-09-19T15:56:27;25.31;50.65
68842;SHT35;55849;48.482;2.332;2023-09-19T15:59:28;25.28;50.70
68842;SHT35;55849;48.482;2.332;2023-09-19T16:02:32;25.24;50.46
68842;SHT35;55849;48.482;2.332;2023-09-19T16:05:37;25.23;50.86
68842;SHT35;55849;48.482;2.332;2023-09-19T16:08:40;25.21;50.75
68842;SHT35;55849;48.482;2.332;2023-09-19T16:11:41;25.18;50.52
68842;SHT35;55849;48.482;2.332;2023-09-19T16:14:44;25.10;51.10
68842;SHT35;55849;48.482;2.332;2023-09-19T16:17:48;25.06;51.05
68842;SHT35;55849;48.482;2.332;2023-09-19T16:20:49;25.00;51.73
68842;SHT35;55849;48.482;2.332;2023-09-19T16:23:51;24.97;51.81
68842;SHT35;55849;48.482;2.332;2023-09-19T16:26:54;24.92;51.28
68842;SHT35;55849;48.482;2.332;2023-09-19T16:29:55;24.87;51.22
68842;SHT35;55849;48.482;2.332;2023-09-19T16:32:58;24.82;51.55
68842;SHT35;55849;48.482;2.332;2023-09-19T16:36:00;24.79;51.96
68842;SHT35;55849;48.482;2.332;2023-09-19T16:39:02;24.73;51.62
68842;SHT35;55849;48.482;2.332;2023-09-19T16:42:05;24.72;52.02
68842;SHT35;55849;48.482;2.332;2023-09-19T16:45:08;24.69;51.77
68842;SHT35;55849;48.482;2.332;2023-09-19T16:48:11;24.65;51.79
68842;SHT35;55849;48.482;2.332;2023-09-19T16:51:14;24.61;52.06
68842;SHT35;55849;48.482;2.332;2023-09-19T16:54:16;24.55;51.63
68842;SHT35;55849;48.482;2.332;2023-09-19T16:57:17;24.52;52.03
68842;SHT35;55849;48.482;2.332;2023-09-19T17:00:19;24.49;52.17
68842;SHT35;55849;48.482;2.332;2023-09-19T17:03:22;24.48;51.97
68842;SHT35;55849;48.482;2.332;2023-09-19T17:06:24;24.45;52.13
68842;SHT35;55849;48.482;2.332;2023-09-19T17:09:26;24.40;51.95
68842;SHT35;55849;48.482;2.332;2023-09-19T17:12:28;24.38;52.45
68842;SHT35;55849;48.482;2.332;2023-09-19T17:15:29;24.35;52.35
68842;SHT35;55849;48.482;2.332;2023-09-19T17:18:33;24.34;52.42
68842;SHT35;55849;48.482;2.332;2023-09-19T17:21:35;24.34;52.76
68842;SHT35;55849;48.482;2.332;2023-09-19T17:24:37;24.28;52.74
68842;SHT35;55849;48.482;2.332;2023-09-19T17:27:38;24.23;52.84
68842;SHT35;55849;48.482;2.332;2023-09-19T17:30:40;24.23;53.06
68842;SHT35;55849;48.482;2.332;2023-09-19T17:33:44;24.17;53.24
68842;SHT35;55849;48.482;2.332;2023-09-19T17:36:45;24.14;53.63
68842;SHT35;55849;48.482;2.332;2023-09-19T17:39:49;24.12;53.59
68842;SHT35;55849;48.482;2.332;2023-09-19T17:42:50;24.09;53.69
68842;SHT35;55849;48.482;2.332;2023-09-19T17:45:52;24.05;54.06
68842;SHT35;55849;48.482;2.332;2023-09-19T17:48:56;24.02;53.93
68842;SHT35;55849;48.482;2.332;2023-09-19T17:51:58;23.99;54.45
68842;SHT35;55849;48.482;2.332;2023-09-19T17:54:59;23.93;54.22
68842;SHT35;55849;48.482;2.332;2023-09-19T17:58:01;23.89;54.58
68842;SHT35;55849;48.482;2.332;2023-09-19T18:01:07;23.88;54.56
68842;SHT35;55849;48.482;2.332;2023-09-19T18:04:11;23.85;54.52
68842;SHT35;55849;48.482;2.332;2023-09-19T18:07:14;23.79;54.87
68842;SHT35;55849;48.482;2.332;2023-09-19T18:10:16;23.78;54.90
68842;SHT35;55849;48.482;2.332;2023-09-19T18:13:17;23.73;55.25
68842;SHT35;55849;48.482;2.332;2023-09-19T18:16:20;23.71;55.25
68842;SHT35;55849;48.482;2.332;2023-09-19T18:19:25;23.66;55.34
68842;SHT35;55849;48.482;2.332;2023-09-19T18:22:27;23.65;55.39
68842;SHT35;55849;48.482;2.332;2023-09-19T18:25:29;23.59;55.42
68842;SHT35;55849;48.482;2.332;2023-09-19T18:28:31;23.59;55.55
68842;SHT35;55849;48.482;2.332;2023-09-19T18:31:33;23.57;55.69
68842;SHT35;55849;48.482;2.332;2023-09-19T18:34:36;23.55;55.74
68842;SHT35;55849;48.482;2.332;2023-09-19T18:37:38;23.53;55.81
68842;SHT35;55849;48.482;2.332;2023-09-19T18:40:42;23.47;55.95
68842;SHT35;55849;48.482;2.332;2023-09-19T18:43:45;23.46;56.21
68842;SHT35;55849;48.482;2.332;2023-09-19T18:46:47;23.46;56.40
68842;SHT35;55849;48.482;2.332;2023-09-19T18:49:50;23.41;56.50
68842;SHT35;55849;48.482;2.332;2023-09-19T18:52:51;23.37;56.66
68842;SHT35;55849;48.482;2.332;2023-09-19T18:56:02;23.37;56.85
68842;SHT35;55849;48.482;2.332;2023-09-19T18:59:04;23.38;56.95
68842;SHT35;55849;48.482;2.332;2023-09-19T19:02:06;23.34;57.25
68842;SHT35;55849;48.482;2.332;2023-09-19T19:05:11;23.36;57.31
68842;SHT35;55849;48.482;2.332;2023-09-19T19:08:16;23.34;57.43
68842;SHT35;55849;48.482;2.332;2023-09-19T19:11:19;23.28;57.67
68842;SHT35;55849;48.482;2.332;2023-09-19T19:14:22;23.27;57.52
68842;SHT35;55849;48.482;2.332;2023-09-19T19:17:23;23.27;57.76
68842;SHT35;55849;48.482;2.332;2023-09-19T19:20:26;23.24;58.08
68842;SHT35;55849;48.482;2.332;2023-09-19T19:23:28;23.21;58.21
68842;SHT35;55849;48.482;2.332;2023-09-19T19:26:30;23.20;58.25
68842;SHT35;55849;48.482;2.332;2023-09-19T19:29:32;23.17;58.49
68842;SHT35;55849;48.482;2.332;2023-09-19T19:32:35;23.14;58.55
68842;SHT35;55849;48.482;2.332;2023-09-19T19:35:38;23.13;58.76
68842;SHT35;55849;48.482;2.332;2023-09-19T19:38:40;23.12;58.89
68842;SHT35;55849;48.482;2.332;2023-09-19T19:41:46;23.03;59.08
68842;SHT35;55849;48.482;2.332;2023-09-19T19:44:48;23.03;59.20
68842;SHT35;55849;48.482;2.332;2023-09-19T19:47:54;23.00;59.33
68842;SHT35;55849;48.482;2.332;2023-09-19T19:50:57;22.96;59.37
68842;SHT35;55849;48.482;2.332;2023-09-19T19:54:00;22.94;59.50
68842;SHT35;55849;48.482;2.332;2023-09-19T19:57:02;22.94;59.61
68842;SHT35;55849;48.482;2.332;2023-09-19T20:00:06;22.91;59.79
68842;SHT35;55849;48.482;2.332;2023-09-19T20:03:08;22.88;59.78
68842;SHT35;55849;48.482;2.332;2023-09-19T20:06:12;22.86;59.95
68842;SHT35;55849;48.482;2.332;2023-09-19T20:09:15;22.84;59.99
68842;SHT35;55849;48.482;2.332;2023-09-19T20:12:19;22.81;60.11
68842;SHT35;55849;48.482;2.332;2023-09-19T20:15:21;22.79;60.21
68842;SHT35;55849;48.482;2.332;2023-09-19T20:18:25;22.76;60.29
68842;SHT35;55849;48.482;2.332;2023-09-19T20:21:28;22.73;60.46
68842;SHT35;55849;48.482;2.332;2023-09-19T20:24:30;22.71;60.58
68842;SHT35;55849;48.482;2.332;2023-09-19T20:27:31;22.71;60.84
68842;SHT35;55849;48.482;2.332;2023-09-19T20:30:33;22.67;60.92
68842;SHT35;55849;48.482;2.332;2023-09-19T20:33:35;22.67;61.09
68842;SHT35;55849;48.482;2.332;2023-09-19T20:36:39;22.62;61.29
68842;SHT35;55849;48.482;2.332;2023-09-19T20:39:41;22.60;61.54
68842;SHT35;55849;48.482;2.332;2023-09-19T20:42:43;22.58;61.81
68842;SHT35;55849;48.482;2.332;2023-09-19T20:45:44;22.57;61.90
68842;SHT35;55849;48.482;2.332;2023-09-19T20:48:47;22.55;62.18
68842;SHT35;55849;48.482;2.332;2023-09-19T20:51:52;22.55;62.28
68842;SHT35;55849;48.482;2.332;2023-09-19T20:54:53;22.54;62.60
68842;SHT35;55849;48.482;2.332;2023-09-19T20:57:55;22.54;62.63
68842;SHT35;55849;48.482;2.332;2023-09-19T21:01:00;22.51;63.04
68842;SHT35;55849;48.482;2.332;2023-09-19T21:04:02;22.48;62.99
68842;SHT35;55849;48.482;2.332;2023-09-19T21:07:05;22.50;63.24
68842;SHT35;55849;48.482;2.332;2023-09-19T21:10:08;22.48;63.25
68842;SHT35;55849;48.482;2.332;2023-09-19T21:13:09;22.51;63.35
68842;SHT35;55849;48.482;2.332;2023-09-19T21:16:12;22.47;63.58
68842;SHT35;55849;48.482;2.332;2023-09-19T21:19:15;22.47;63.63
68842;SHT35;55849;48.482;2.332;2023-09-19T21:22:18;22.45;63.74
68842;SHT35;55849;48.482;2.332;2023-09-19T21:25:19;22.48;63.86
68842;SHT35;55849;48.482;2.332;2023-09-19T21:28:21;22.45;64.05
68842;SHT35;55849;48.482;2.332;2023-09-19T21:31:23;22.47;64.08
68842;SHT35;55849;48.482;2.332;2023-09-19T21:34:25;22.44;64.29
68842;SHT35;55849;48.482;2.332;2023-09-19T21:37:28;22.44;64.44
68842;SHT35;55849;48.482;2.332;2023-09-19T21:40:30;22.43;64.40
68842;SHT35;55849;48.482;2.332;2023-09-19T21:43:31;22.43;64.40
68842;SHT35;55849;48.482;2.332;2023-09-19T21:46:33;22.43;64.58
68842;SHT35;55849;48.482;2.332;2023-09-19T21:49:34;22.39;64.60
68842;SHT35;55849;48.482;2.332;2023-09-19T21:52:37;22.39;64.64
68842;SHT35;55849;48.482;2.332;2023-09-19T21:55:39;22.40;64.83
68842;SHT35;55849;48.482;2.332;2023-09-19T21:58:41;22.39;64.91
68842;SHT35;55849;48.482;2.332;2023-09-19T22:01:42;22.34;64.96
68842;SHT35;55849;48.482;2.332;2023-09-19T22:04:47;22.36;65.09
